Time;durP1;ratioP1;P1;durP2;ratioP2;P2;SDS_P1;SDS_P2;PMS_P1;PMS_P2;Temp;Humidity;BMP_temperature;BMP_pressure;BME280_temperature;BME280_humidity;BME280_pressure;Samples;Min_cycle;Max_cycle;Signal;HPM_P1;HPM_P2
2021/11/13 05:00:39;;;;;;;15.10;8.18;;;;;;;-0.60;100.00;95256.66;5941252;23;20108;-72
2021/11/13 05:03:05;;;;;;;7.85;7.05;;;;;;;-0.50;100.00;95253.53;4946434;28;20127;-73
2021/11/13 05:05:30;;;;;;;11.07;7.45;;;;;;;-0.60;100.00;95259.22;4937837;28;20062;-73
2021/11/13 05:07:56;;;;;;;14.18;8.02;;;;;;;-0.59;100.00;95254.94;4934439;29;20042;-73
2021/11/13 05:10:21;;;;;;;11.90;7.78;;;;;;;-0.58;100.00;95252.28;4950874;29;20032;-73
2021/11/13 05:12:47;;;;;;;8.57;7.68;;;;;;;-0.52;100.00;95257.91;4949809;29;20032;-72
2021/11/13 05:15:13;;;;;;;10.13;7.75;;;;;;;-0.50;100.00;95262.00;4934555;29;20103;-71
2021/11/13 05:17:38;;;;;;;11.57;7.82;;;;;;;-0.48;100.00;95259.38;4931705;29;20086;-72
2021/11/13 05:20:07;;;;;;;12.43;7.65;;;;;;;-0.44;100.00;95260.78;4947383;29;20543;-72
2021/11/13 05:22:34;;;;;;;8.70;7.55;;;;;;;-0.44;100.00;95251.44;4953443;28;20066;-72
2021/11/13 05:25:00;;;;;;;7.75;7.03;;;;;;;-0.46;100.00;95253.25;4964507;28;20035;-72
2021/11/13 05:27:25;;;;;;;10.38;8.02;;;;;;;-0.40;100.00;95257.13;4930475;29;20031;-72
2021/11/13 05:29:51;;;;;;;11.35;8.20;;;;;;;-0.32;100.00;95268.44;4962545;28;20060;-72
2021/11/13 05:32:16;;;;;;;15.10;10.00;;;;;;;-0.28;100.00;95269.88;4938926;29;20031;-72
2021/11/13 05:34:42;;;;;;;11.15;8.75;;;;;;;-0.25;100.00;95258.69;4945428;29;20035;-72
2021/11/13 05:37:07;;;;;;;11.88;9.23;;;;;;;-0.21;100.00;95265.22;4954140;28;20060;-72
2021/11/13 05:39:36;;;;;;;16.15;8.98;;;;;;;-0.13;100.00;95260.47;4938612;29;20028;-72
2021/11/13 05:42:01;;;;;;;13.52;8.68;;;;;;;-0.03;100.00;95267.41;4923947;29;20117;-74
2021/11/13 05:44:27;;;;;;;20.02;11.65;;;;;;;0.22;100.00;95263.25;4944313;29;20027;-73
2021/11/13 05:46:54;;;;;;;17.95;10.18;;;;;;;0.35;99.86;95261.53;4921065;29;20974;-74
2021/11/13 05:49:20;;;;;;;15.90;10.50;;;;;;;0.86;97.89;95267.41;4939582;29;20047;-75
2021/11/13 05:51:46;;;;;;;17.30;11.77;;;;;;;0.83;97.31;95267.63;4927419;29;20028;-75
2021/11/13 05:54:11;;;;;;;16.35;9.25;;;;;;;0.88;96.57;95275.75;4932379;29;20042;-74
2021/11/13 05:56:36;;;;;;;14.02;7.43;;;;;;;1.02;95.99;95270.53;4945708;29;20042;-74
2021/11/13 05:59:02;;;;;;;9.27;7.20;;;;;;;1.14;96.04;95285.00;4946373;29;20043;-74
2021/11/13 06:01:27;;;;;;;10.27;6.90;;;;;;;1.40;95.08;95283.19;4942057;28;20040;-74
2021/11/13 06:03:53;;;;;;;11.63;6.47;;;;;;;1.79;94.06;95280.38;4961923;28;20041;-73
2021/11/13 06:06:18;;;;;;;11.82;6.80;;;;;;;3.27;86.96;95280.34;4956335;28;20105;-74
2021/11/13 06:08:44;;;;;;;9.23;6.68;;;;;;;2.94;84.87;95283.75;4911518;29;20023;-74
2021/11/13 06:11:10;;;;;;;9.63;7.25;;;;;;;3.25;85.32;95282.19;4944381;29;20039;-73
2021/11/13 06:13:36;;;;;;;10.00;7.18;;;;;;;3.48;83.30;95284.63;4932193;29;20042;-74
2021/11/13 06:16:03;;;;;;;17.42;14.00;;;;;;;2.85;86.79;95287.00;4934632;29;20098;-73
2021/11/13 06:18:31;;;;;;;12.35;10.82;;;;;;;4.25;83.66;95282.72;4948607;29;20027;-73
2021/11/13 06:20:57;;;;;;;10.23;9.30;;;;;;;6.22;70.42;95270.97;4933998;29;20024;-73
2021/11/13 06:23:22;;;;;;;8.68;7.63;;;;;;;4.65;77.26;95281.09;4950711;29;20027;-73
2021/11/13 06:25:48;;;;;;;8.82;7.93;;;;;;;5.30;76.20;95282.41;4931017;29;20027;-72
2021/11/13 06:28:13;;;;;;;11.48;6.38;;;;;;;6.65;70.72;95280.75;4949037;29;20042;-74
2021/11/13 06:30:39;;;;;;;10.13;9.23;;;;;;;6.13;71.45;95282.84;4947984;29;20042;-72
2021/11/13 06:33:04;;;;;;;44.50;29.10;;;;;;;6.76;71.02;95284.00;4933818;29;20440;-73
2021/11/13 06:35:30;;;;;;;47.17;22.95;;;;;;;7.00;69.21;95283.50;4947025;29;20031;-72
2021/11/13 06:37:56;;;;;;;46.70;31.73;;;;;;;7.14;68.76;95283.06;4917730;29;20099;-73
2021/11/13 06:40:21;;;;;;;53.75;36.50;;;;;;;6.34;73.15;95282.72;4924918;29;20448;-72
2021/11/13 06:42:47;;;;;;;34.83;25.90;;;;;;;6.89;71.31;95274.22;4942184;28;20110;-72
2021/11/13 06:45:12;;;;;;;20.83;16.58;;;;;;;7.17;70.46;95276.81;4910517;29;20499;-72
2021/11/13 06:47:38;;;;;;;16.35;14.60;;;;;;;7.05;70.07;95272.81;4920939;29;20020;-73
2021/11/13 06:50:04;;;;;;;11.45;10.15;;;;;;;7.00;70.59;95282.72;4925126;29;20071;-73
2021/11/13 06:52:30;;;;;;;18.73;13.85;;;;;;;6.86;71.11;95282.22;4943746;29;20035;-73
2021/11/13 06:54:55;;;;;;;13.52;11.55;;;;;;;7.48;68.97;95254.19;4933443;29;20034;-72
2021/11/13 06:57:21;;;;;;;16.08;13.10;;;;;;;8.44;66.29;95286.06;4912968;29;20044;-72
2021/11/13 06:59:47;;;;;;;15.30;13.70;;;;;;;10.26;58.95;95275.28;4945091;28;20032;-72
2021/11/13 07:02:12;;;;;;;14.73;11.50;;;;;;;12.44;51.36;95273.75;4931928;29;20584;-73
2021/11/13 07:04:38;;;;;;;15.10;11.20;;;;;;;12.83;49.97;95273.59;4926507;29;20036;-73
2021/11/13 07:07:04;;;;;;;12.63;11.30;;;;;;;10.86;54.51;95275.72;4915411;29;20457;-73
2021/11/13 07:09:29;;;;;;;11.93;10.65;;;;;;;10.11;58.51;95278.63;4937857;29;20031;-73
2021/11/13 07:11:55;;;;;;;9.60;8.60;;;;;;;11.77;54.26;95272.72;4948478;29;20028;-73
2021/11/13 07:14:20;;;;;;;8.68;7.78;;;;;;;11.29;57.63;95278.88;4931267;29;20035;-73
2021/11/13 07:16:46;;;;;;;7.25;6.50;;;;;;;11.87;53.92;95263.75;4932955;29;20019;-73
2021/11/13 07:19:13;;;;;;;8.35;5.78;;;;;;;12.86;50.86;95268.88;4932264;29;20087;-72
2021/11/13 07:21:39;;;;;;;6.32;5.72;;;;;;;12.69;50.31;95264.78;4948270;29;20031;-73
2021/11/13 07:24:05;;;;;;;6.45;5.60;;;;;;;14.28;47.19;95251.06;4932834;29;20024;-73
2021/11/13 07:26:30;;;;;;;6.03;5.43;;;;;;;15.75;42.54;95248.31;4929719;29;20570;-73
2021/11/13 07:29:01;;;;;;;6.75;5.53;;;;;;;15.83;42.92;95248.13;4947013;29;20067;-73
2021/11/13 07:31:26;;;;;;;5.43;5.03;;;;;;;13.42;46.62;95238.88;4962847;28;20485;-72
2021/11/13 07:33:53;;;;;;;5.60;5.10;;;;;;;17.21;39.92;95243.09;4923964;29;20055;-73
2021/11/13 07:36:19;;;;;;;10.15;6.40;;;;;;;15.68;39.89;95235.22;4941661;28;20063;-72
2021/11/13 07:38:44;;;;;;;5.75;5.20;;;;;;;17.86;37.67;95234.25;4955140;28;20127;-72
2021/11/13 07:41:10;;;;;;;6.55;6.03;;;;;;;19.32;35.11;95241.72;4929275;29;20507;-72
2021/11/13 07:43:36;;;;;;;6.22;5.63;;;;;;;19.99;34.04;95242.63;4937434;29;20581;-72
2021/11/13 07:46:01;;;;;;;7.70;6.85;;;;;;;20.57;32.23;95244.69;4959048;28;20428;-72
2021/11/13 07:48:27;;;;;;;9.50;8.65;;;;;;;18.92;32.09;95243.09;4953639;28;20564;-73
2021/11/13 07:50:52;;;;;;;8.73;7.50;;;;;;;19.93;31.78;95246.13;4940989;29;20492;-72
2021/11/13 07:53:18;;;;;;;8.25;7.50;;;;;;;21.00;31.39;95242.59;4947362;29;20043;-72
2021/11/13 07:55:43;;;;;;;7.15;6.53;;;;;;;20.31;31.57;95244.03;4949351;28;20070;-72
2021/11/13 07:58:13;;;;;;;7.68;7.05;;;;;;;21.15;30.60;95252.72;4947943;29;20539;-72
2021/11/13 08:00:38;;;;;;;9.98;6.97;;;;;;;19.62;33.56;95246.31;4948981;28;20038;-72
2021/11/13 08:03:04;;;;;;;7.43;6.72;;;;;;;19.12;34.42;95243.72;4927593;29;20027;-72
2021/11/13 08:05:29;;;;;;;7.68;6.40;;;;;;;20.13;32.54;95245.88;4945349;29;20493;-72
2021/11/13 08:07:55;;;;;;;7.90;7.00;;;;;;;20.09;32.27;95248.16;4942397;29;20036;-72
2021/11/13 08:10:20;;;;;;;7.60;6.90;;;;;;;20.73;31.93;95251.94;4932170;29;20035;-72
2021/11/13 08:12:47;;;;;;;7.30;6.60;;;;;;;21.38;30.86;95242.97;4936413;29;20027;-72
2021/11/13 08:15:14;;;;;;;7.72;7.10;;;;;;;20.13;33.18;95236.16;4950821;29;20054;-72
2021/11/13 08:17:41;;;;;;;8.10;7.30;;;;;;;19.94;32.62;95245.09;4936234;29;20184;-72
2021/11/13 08:20:07;;;;;;;7.40;6.78;;;;;;;19.05;34.15;95253.47;4951960;29;20058;-72
2021/11/13 08:22:35;;;;;;;7.22;6.53;;;;;;;16.51;37.44;95256.75;4950986;28;20023;-72
2021/11/13 08:25:01;;;;;;;8.40;6.50;;;;;;;19.37;33.69;95244.50;4933956;28;20103;-72
2021/11/13 08:27:26;;;;;;;7.43;6.65;;;;;;;20.53;32.41;95246.97;4935194;28;20040;-72
2021/11/13 08:29:52;;;;;;;8.90;7.35;;;;;;;19.33;33.68;95240.69;4926610;29;20032;-72
2021/11/13 08:32:17;;;;;;;7.57;6.95;;;;;;;21.41;31.69;95247.81;4922036;29;20032;-72
2021/11/13 08:34:43;;;;;;;7.47;6.80;;;;;;;21.82;30.81;95248.66;4943295;29;20031;-72
2021/11/13 08:37:09;;;;;;;8.27;6.47;;;;;;;21.20;30.83;95239.66;4965130;28;20118;-71
2021/11/13 08:39:35;;;;;;;7.32;6.72;;;;;;;20.83;31.64;95239.03;4934089;29;20035;-72
2021/11/13 08:42:11;;;;;;;7.57;6.97;;;;;;;20.79;32.12;95248.41;4933429;29;20485;-72
2021/11/13 08:44:38;;;;;;;10.45;7.32;;;;;;;22.93;29.77;95230.41;4965254;28;20065;-72
2021/11/13 08:47:04;;;;;;;8.57;7.88;;;;;;;22.48;30.78;95230.41;4953944;28;20039;-72
2021/11/13 08:49:30;;;;;;;7.72;7.10;;;;;;;23.14;29.78;95226.25;4953082;28;20081;-71
2021/11/13 08:51:56;;;;;;;7.18;6.47;;;;;;;21.65;31.10;95222.19;4964206;28;20038;-71
2021/11/13 08:54:21;;;;;;;6.95;6.35;;;;;;;22.17;31.18;95219.53;4955186;28;20023;-72
2021/11/13 08:56:47;;;;;;;6.88;6.18;;;;;;;20.94;32.44;95225.84;4925851;29;20031;-72
2021/11/13 08:59:12;;;;;;;8.82;6.78;;;;;;;20.25;33.27;95215.16;4945195;28;20035;-72
2021/11/13 09:01:39;;;;;;;8.55;6.47;;;;;;;21.82;31.06;95211.72;4939103;29;20102;-72
2021/11/13 09:04:05;;;;;;;6.53;5.93;;;;;;;21.43;32.11;95222.00;4960965;28;20388;-72
2021/11/13 09:06:31;;;;;;;6.55;6.05;;;;;;;20.75;33.25;95210.38;4949235;28;20118;-72
2021/11/13 09:08:58;;;;;;;7.32;6.72;;;;;;;20.85;32.88;95213.25;4959012;28;20058;-72
2021/11/13 09:11:24;;;;;;;7.22;6.50;;;;;;;21.33;31.53;95211.22;4932130;29;20118;-72
2021/11/13 09:13:50;;;;;;;7.65;7.03;;;;;;;20.41;33.64;95210.09;4949264;29;20027;-72
2021/11/13 09:16:16;;;;;;;8.52;7.63;;;;;;;21.17;32.36;95204.03;4932723;29;20038;-72
2021/11/13 09:18:43;;;;;;;8.38;7.57;;;;;;;21.67;31.58;95204.31;4948955;29;20114;-72
2021/11/13 09:21:09;;;;;;;8.82;8.02;;;;;;;21.90;30.92;95201.63;4933303;28;20031;-72
2021/11/13 09:23:35;;;;;;;19.73;7.97;;;;;;;21.84;31.56;95205.16;4932679;29;20032;-72
2021/11/13 09:26:01;;;;;;;8.23;7.57;;;;;;;21.74;31.36;95199.69;4949948;28;20107;-72
2021/11/13 09:28:27;;;;;;;9.23;8.32;;;;;;;22.35;31.13;95195.56;4932991;29;20039;-72
2021/11/13 09:30:52;;;;;;;8.02;7.43;;;;;;;21.36;31.91;95197.59;4933668;29;20023;-72
2021/11/13 09:33:18;;;;;;;9.57;8.65;;;;;;;21.81;30.72;95189.00;4950221;28;20038;-72
2021/11/13 09:35:44;;;;;;;14.07;8.68;;;;;;;22.42;30.35;95180.41;4949003;29;20031;-72
2021/11/13 09:38:10;;;;;;;8.85;8.05;;;;;;;22.09;30.77;95178.50;4933070;29;20035;-72
2021/11/13 09:40:35;;;;;;;9.10;8.20;;;;;;;22.62;29.93;95177.28;4948491;29;20086;-72
2021/11/13 09:43:02;;;;;;;9.10;8.30;;;;;;;22.87;30.29;95175.06;4933394;29;20035;-72
2021/11/13 09:45:28;;;;;;;8.80;8.10;;;;;;;21.04;32.20;95152.34;4948478;29;20034;-72
2021/11/13 09:47:54;;;;;;;8.57;7.85;;;;;;;22.00;31.15;95167.53;4949110;29;20110;-72
2021/11/13 09:50:21;;;;;;;7.57;6.95;;;;;;;22.97;29.80;95169.94;4948492;29;20497;-72
2021/11/13 09:52:47;;;;;;;8.48;7.78;;;;;;;21.92;30.92;95161.84;4948961;29;20062;-72
2021/11/13 09:55:12;;;;;;;8.85;8.10;;;;;;;22.62;29.92;95158.81;4932730;29;20098;-72
2021/11/13 09:57:38;;;;;;;10.35;9.32;;;;;;;23.30;29.71;95155.88;4964583;28;20050;-72
2021/11/13 10:00:08;;;;;;;8.85;8.05;;;;;;;22.55;30.76;95149.22;4948950;29;20035;-73
2021/11/13 10:02:33;;;;;;;;;;;;;;;22.35;30.38;95146.22;4948603;29;20050;-72
2021/11/13 10:04:58;;;;;;;9.63;8.18;;;;;;;21.25;32.72;95144.91;4948794;29;19915;-72
2021/11/13 10:07:24;;;;;;;8.27;7.47;;;;;;;16.80;38.84;95139.47;4948950;28;20204;-72
2021/11/13 10:09:50;;;;;;;8.73;7.93;;;;;;;16.37;40.26;95147.94;4932818;29;20031;-72
2021/11/13 10:12:16;;;;;;;9.27;8.32;;;;;;;16.34;41.35;95144.72;4948246;29;20046;-72
2021/11/13 10:14:42;;;;;;;8.57;7.72;;;;;;;16.78;41.64;95133.66;4932529;29;20031;-72
2021/11/13 10:17:21;;;;;;;9.27;8.30;;;;;;;15.49;43.02;95143.78;4932461;29;20488;-72
2021/11/13 10:19:47;;;;;;;13.13;8.40;;;;;;;15.58;43.01;95142.59;4947690;29;20043;-72
2021/11/13 10:22:12;;;;;;;8.70;7.35;;;;;;;15.42;42.76;95125.44;4932632;29;20027;-72
2021/11/13 10:24:42;;;;;;;13.20;10.30;;;;;;;16.05;42.03;95123.41;4931869;29;20110;-72
2021/11/13 10:27:08;;;;;;;14.63;12.82;;;;;;;15.58;43.58;95119.91;4948293;29;20031;-72
2021/11/13 10:29:38;;;;;;;14.32;11.50;;;;;;;15.91;42.87;95116.56;4931795;29;20062;-72
2021/11/13 10:32:09;;;;;;;14.60;11.35;;;;;;;15.71;42.79;95108.69;4932765;29;20110;-72
2021/11/13 10:34:38;;;;;;;12.13;9.85;;;;;;;15.25;43.46;95109.31;4947249;28;20035;-72
2021/11/13 10:37:05;;;;;;;15.30;11.10;;;;;;;15.50;43.52;95114.88;4931799;29;20031;-72
2021/11/13 10:39:39;;;;;;;11.93;10.73;;;;;;;15.58;43.92;95101.63;4932018;29;20040;-72
2021/11/13 10:42:10;;;;;;;12.65;10.38;;;;;;;16.08;42.58;95099.50;4947384;29;20031;-72
2021/11/13 10:44:58;;;;;;;11.45;9.70;;;;;;;15.86;42.77;95092.84;4947929;29;20110;-72
2021/11/13 10:47:36;;;;;;;9.50;8.50;;;;;;;16.05;42.62;95092.06;4948640;28;20027;-72
2021/11/13 10:50:19;;;;;;;9.45;7.90;;;;;;;14.99;43.31;95084.94;4931320;29;20039;-73
2021/11/13 10:53:02;;;;;;;9.60;8.57;;;;;;;15.67;42.96;95082.16;4958979;28;20086;-73
2021/11/13 10:55:28;;;;;;;9.75;7.90;;;;;;;15.72;43.80;95079.78;4937184;29;20032;-73
2021/11/13 10:57:53;;;;;;;9.02;7.95;;;;;;;16.06;42.00;95073.53;4927905;29;20397;-74
2021/11/13 11:00:19;;;;;;;7.65;6.95;;;;;;;15.74;42.42;95064.69;4916120;29;20031;-73
2021/11/13 11:03:02;;;;;;;8.75;7.72;;;;;;;15.96;43.29;95070.53;4938797;29;20043;-72
2021/11/13 11:05:38;;;;;;;8.02;7.22;;;;;;;16.15;43.31;95071.56;4936400;29;20043;-72
2021/11/13 11:08:33;;;;;;;12.07;6.85;;;;;;;15.89;42.74;95056.69;4956915;28;20588;-73
2021/11/13 11:10:59;;;;;;;8.80;6.35;;;;;;;15.89;42.28;95064.53;4954927;28;20046;-72
2021/11/13 11:14:03;;;;;;;7.78;7.05;;;;;;;16.10;42.64;95047.81;4937452;29;20027;-72
2021/11/13 11:16:29;;;;;;;8.68;7.10;;;;;;;15.72;42.15;95050.22;4903384;29;20044;-72
2021/11/13 11:19:18;;;;;;;8.83;7.00;;;;;;;16.03;42.50;95053.06;5293352;23;20032;-72
2021/11/13 11:21:55;;;;;;;10.65;7.05;;;;;;;15.66;42.64;95041.41;4937236;29;20701;-71
2021/11/13 11:24:48;;;;;;;9.02;6.05;;;;;;;15.43;43.04;95045.34;4941337;29;20042;-74
2021/11/13 11:27:18;;;;;;;7.32;6.72;;;;;;;15.85;42.52;95044.22;4935435;29;20062;-74
2021/11/13 11:29:54;;;;;;;;;;;;;;;16.09;42.10;95036.56;4945256;29;20067;-71
2021/11/13 11:32:26;;;;;;;8.05;6.75;;;;;;;15.80;41.87;95029.13;4946749;29;19933;-71
2021/11/13 11:34:52;;;;;;;9.35;6.22;;;;;;;16.22;41.35;95028.72;4943421;29;20067;-71
2021/11/13 11:37:24;;;;;;;8.32;7.45;;;;;;;15.81;41.64;95028.13;4943989;28;20038;-71
2021/11/13 11:39:53;;;;;;;7.65;6.95;;;;;;;16.21;41.51;95027.09;4940314;29;20507;-71
2021/11/13 11:42:18;;;;;;;8.20;7.05;;;;;;;16.73;41.35;95023.59;4938744;29;20015;-71
2021/11/13 11:44:45;;;;;;;7.32;6.03;;;;;;;15.91;41.38;95022.50;4940928;28;20094;-71
2021/11/13 11:47:15;;;;;;;8.68;7.03;;;;;;;16.22;41.17;95020.88;4953767;28;20058;-71
2021/11/13 11:49:43;;;;;;;8.20;7.43;;;;;;;16.20;41.58;95022.91;4952431;29;20077;-71
2021/11/13 11:52:09;;;;;;;12.50;6.75;;;;;;;16.47;41.30;95012.38;4951219;28;20019;-71
2021/11/13 11:54:34;;;;;;;9.85;7.47;;;;;;;16.96;40.88;95022.28;4952431;29;20114;-71
2021/11/13 11:57:00;;;;;;;9.10;7.47;;;;;;;16.66;39.77;95017.56;4952348;28;20019;-71
2021/11/13 11:59:27;;;;;;;7.85;7.15;;;;;;;16.55;40.30;95022.66;4953419;28;20031;-71
2021/11/13 12:02:06;;;;;;;7.65;6.85;;;;;;;16.30;39.72;95014.63;4943463;28;20831;-71
2021/11/13 12:04:32;;;;;;;7.97;6.63;;;;;;;16.34;40.24;95019.22;4951963;29;20034;-72
2021/11/13 12:06:57;;;;;;;8.07;7.28;;;;;;;16.78;39.34;95007.28;4952396;28;20816;-71
2021/11/13 12:09:27;;;;;;;13.50;10.25;;;;;;;16.83;39.35;95012.69;4951754;28;20526;-72
2021/11/13 12:12:11;;;;;;;7.30;6.63;;;;;;;16.61;39.09;95006.13;4953675;28;20035;-72
2021/11/13 12:14:37;;;;;;;6.40;5.80;;;;;;;16.52;39.84;95005.53;4950947;28;20037;-71
2021/11/13 12:17:21;;;;;;;7.60;6.15;;;;;;;16.79;39.03;95006.28;4944976;28;20638;-71
2021/11/13 12:20:15;;;;;;;5.78;5.22;;;;;;;16.64;38.24;95008.31;4942947;29;20043;-72
2021/11/13 12:22:49;;;;;;;5.55;5.03;;;;;;;16.67;38.87;95005.28;4943678;28;20036;-72
2021/11/13 12:25:20;;;;;;;7.93;5.40;;;;;;;16.46;39.57;95005.53;4943137;29;20042;-72
2021/11/13 12:28:06;;;;;;;8.95;5.38;;;;;;;16.13;39.26;95005.59;4947849;28;20405;-72
2021/11/13 12:31:06;;;;;;;6.25;5.30;;;;;;;16.22;39.94;95005.19;4947291;29;20052;-72
2021/11/13 12:33:32;;;;;;;6.15;5.55;;;;;;;16.09;40.02;94996.56;4943990;29;20043;-74
2021/11/13 12:36:05;;;;;;;6.43;5.82;;;;;;;15.97;40.62;95003.41;4941806;28;20031;-74
2021/11/13 12:38:30;;;;;;;6.40;5.10;;;;;;;15.88;40.39;95002.00;4952843;28;20041;-71
2021/11/13 12:41:14;;;;;;;7.65;5.50;;;;;;;16.27;39.70;94997.56;4950934;28;20402;-72
2021/11/13 12:43:52;;;;;;;6.57;5.90;;;;;;;15.69;40.31;94993.19;4948965;28;20042;-74
2021/11/13 12:46:32;;;;;;;6.50;5.65;;;;;;;15.70;40.05;94992.19;4943071;28;20023;-72
2021/11/13 12:49:21;;;;;;;6.30;5.10;;;;;;;15.51;39.76;94985.16;4965740;28;20082;-73
2021/11/13 12:51:56;;;;;;;10.98;5.57;;;;;;;15.69;39.21;94987.97;4941269;28;20027;-75
2021/11/13 12:54:38;;;;;;;5.53;5.03;;;;;;;15.79;38.88;94983.94;4931681;29;20036;-72
2021/11/13 12:57:07;;;;;;;8.40;5.45;;;;;;;15.78;38.66;94991.97;4934909;29;20563;-72
2021/11/13 12:59:36;;;;;;;6.07;5.47;;;;;;;15.67;38.90;94987.34;4950964;28;20035;-73
2021/11/13 13:02:06;;;;;;;6.90;5.90;;;;;;;15.31;38.01;94991.09;4949031;28;20039;-73
2021/11/13 13:04:33;;;;;;;5.45;4.95;;;;;;;15.35;38.38;94986.28;4966521;28;20031;-73
2021/11/13 13:06:59;;;;;;;5.53;5.05;;;;;;;15.49;37.93;94982.72;4950284;28;20034;-73
2021/11/13 13:09:27;;;;;;;10.25;4.47;;;;;;;15.45;37.96;94983.28;4952132;28;20058;-72
2021/11/13 13:11:57;;;;;;;5.38;4.88;;;;;;;15.30;37.70;94984.28;4951984;28;20050;-72
2021/11/13 13:14:26;;;;;;;;;;;;;;;15.33;37.37;94983.09;4950765;28;20041;-72
2021/11/13 13:16:52;;;;;;;5.10;4.35;;;;;;;15.28;37.12;94985.50;4952504;28;20399;-72
2021/11/13 13:19:19;;;;;;;8.02;4.30;;;;;;;15.24;37.48;94984.28;4950363;28;20118;-73
2021/11/13 13:21:51;;;;;;;6.28;4.68;;;;;;;15.14;37.27;94984.66;4951155;29;20044;-72
2021/11/13 13:24:17;;;;;;;5.07;3.97;;;;;;;15.23;36.86;94988.69;4950438;29;20035;-72
2021/11/13 13:26:43;;;;;;;6.70;4.97;;;;;;;15.16;36.65;94984.44;4952317;28;20046;-72
2021/11/13 13:29:10;;;;;;;6.43;4.22;;;;;;;14.92;35.23;94977.19;4950442;29;20106;-72
2021/11/13 13:31:36;;;;;;;4.80;4.25;;;;;;;14.84;35.53;94990.38;4950158;29;20483;-73
2021/11/13 13:34:01;;;;;;;7.75;4.22;;;;;;;14.86;35.07;94984.00;4951970;29;20043;-72
2021/11/13 13:36:28;;;;;;;5.75;4.05;;;;;;;14.79;33.84;94983.16;4950849;29;20031;-73
2021/11/13 13:38:56;;;;;;;3.97;3.20;;;;;;;14.77;34.46;94983.34;4940846;28;20042;-72
2021/11/13 13:41:22;;;;;;;6.22;4.20;;;;;;;14.73;34.46;94982.16;4943931;28;20125;-72
2021/11/13 13:43:50;;;;;;;4.00;3.65;;;;;;;14.71;34.90;94980.72;4932326;29;20035;-72
2021/11/13 13:46:20;;;;;;;3.85;3.25;;;;;;;14.62;34.42;94984.50;4937506;29;20090;-73
2021/11/13 13:48:56;;;;;;;4.05;3.67;;;;;;;14.56;34.67;94974.84;4944440;28;20893;-73
2021/11/13 13:51:26;;;;;;;7.35;3.92;;;;;;;14.54;34.18;94979.47;4937190;29;20032;-73
2021/11/13 13:54:15;;;;;;;4.25;3.72;;;;;;;14.43;33.69;94969.56;4948728;29;20035;-73
2021/11/13 13:56:48;;;;;;;5.88;3.88;;;;;;;14.31;33.89;94965.88;4952548;28;20031;-72
2021/11/13 13:59:26;;;;;;;5.82;4.53;;;;;;;14.25;33.86;94972.69;4950550;28;20050;-72
2021/11/13 14:02:15;;;;;;;7.55;5.25;;;;;;;14.21;34.49;94966.22;4950585;28;20035;-72
2021/11/13 14:04:46;;;;;;;7.95;6.18;;;;;;;14.11;35.78;94961.38;4942643;29;20043;-72
2021/11/13 14:07:19;;;;;;;8.25;5.95;;;;;;;13.96;37.50;94968.50;4949973;28;20039;-73
2021/11/13 14:10:09;;;;;;;9.35;6.35;;;;;;;13.78;38.26;94970.75;4951387;28;20485;-73
2021/11/13 14:12:38;;;;;;;7.10;5.63;;;;;;;13.72;39.32;94963.72;4950012;29;20043;-72
2021/11/13 14:15:15;;;;;;;7.47;6.78;;;;;;;13.57;40.41;94970.81;4949180;28;20031;-72
2021/11/13 14:17:41;;;;;;;7.35;6.10;;;;;;;13.45;41.31;94967.13;4951549;28;20523;-72
2021/11/13 14:20:12;;;;;;;12.50;6.80;;;;;;;13.35;42.29;94953.63;4946366;29;20066;-73
2021/11/13 14:22:37;;;;;;;7.72;6.88;;;;;;;13.24;43.35;94961.91;4930343;29;20031;-73
2021/11/13 14:25:03;;;;;;;9.50;7.53;;;;;;;13.12;44.34;94969.44;4948973;29;20030;-72
2021/11/13 14:27:29;;;;;;;8.88;7.97;;;;;;;12.98;45.12;94965.84;4949652;28;20136;-73
2021/11/13 14:29:55;;;;;;;10.77;7.85;;;;;;;12.88;46.12;94964.53;4946593;29;20027;-73
2021/11/13 14:32:20;;;;;;;14.63;7.47;;;;;;;12.72;47.27;94964.75;4939782;29;20079;-72
2021/11/13 14:34:46;;;;;;;11.38;9.27;;;;;;;12.63;48.09;94961.47;4943320;29;20035;-72
2021/11/13 14:37:13;;;;;;;15.27;9.38;;;;;;;12.52;48.47;94961.97;4944031;28;20023;-72
2021/11/13 14:39:43;;;;;;;12.55;9.77;;;;;;;12.45;49.20;94966.25;4940319;29;20046;-72
2021/11/13 14:42:09;;;;;;;;;;;;;;;12.34;50.02;94969.31;4937970;29;20448;-72
2021/11/13 14:44:37;;;;;;;13.85;10.02;;;;;;;12.24;50.59;94963.59;4938941;29;19933;-73
2021/11/13 14:47:07;;;;;;;11.30;10.15;;;;;;;12.06;51.23;94966.56;4943422;29;20157;-74
2021/11/13 14:49:34;;;;;;;13.02;9.70;;;;;;;11.86;51.80;94966.28;4942120;29;20035;-72
2021/11/13 14:52:10;;;;;;;13.00;9.25;;;;;;;11.93;51.46;94971.56;4949178;29;20035;-73
2021/11/13 14:54:35;;;;;;;13.60;9.65;;;;;;;11.93;50.83;94976.75;4947846;28;20082;-72
2021/11/13 14:57:06;;;;;;;16.08;10.15;;;;;;;11.63;51.69;94968.91;4950455;29;20456;-74
2021/11/13 14:59:35;;;;;;;13.48;9.63;;;;;;;11.60;51.15;94968.44;4947009;29;20027;-74
2021/11/13 15:02:00;;;;;;;13.27;10.43;;;;;;;11.45;51.20;94970.22;4937515;29;20123;-73
2021/11/13 15:04:36;;;;;;;12.52;9.48;;;;;;;11.45;50.63;94972.81;4940701;29;20031;-73
2021/11/13 15:07:06;;;;;;;15.05;10.18;;;;;;;11.32;50.66;94983.78;4922437;29;20039;-74
2021/11/13 15:09:37;;;;;;;16.10;9.98;;;;;;;11.12;51.16;94982.63;4942631;29;20062;-73
2021/11/13 15:12:03;;;;;;;12.23;9.43;;;;;;;11.09;50.21;94980.38;4938235;29;20034;-73
2021/11/13 15:14:32;;;;;;;17.80;10.32;;;;;;;11.06;49.68;94976.34;4938713;28;20058;-73
2021/11/13 15:16:58;;;;;;;13.65;10.30;;;;;;;10.97;49.87;94985.16;4943731;28;20492;-74
2021/11/13 15:19:24;;;;;;;15.13;10.77;;;;;;;10.84;50.30;94976.34;4947083;28;20520;-73
2021/11/13 15:21:50;;;;;;;12.38;10.65;;;;;;;10.83;50.69;94992.84;4937177;28;20051;-74
2021/11/13 15:24:19;;;;;;;17.77;11.27;;;;;;;10.55;52.11;94984.75;4962304;28;20052;-74
2021/11/13 15:26:47;;;;;;;16.08;12.57;;;;;;;10.61;51.93;94991.84;4948521;29;20035;-73
2021/11/13 15:29:16;;;;;;;12.65;11.35;;;;;;;10.44;52.77;94990.31;4947067;29;20038;-74
2021/11/13 15:31:44;;;;;;;14.85;10.77;;;;;;;10.34;53.35;94994.91;4949833;28;20026;-73
2021/11/13 15:34:09;;;;;;;13.20;10.90;;;;;;;10.21;53.65;94997.22;4948199;28;20031;-73
2021/11/13 15:36:35;;;;;;;11.45;9.80;;;;;;;10.02;54.22;94999.16;4948191;29;20110;-71
2021/11/13 15:39:02;;;;;;;11.25;10.15;;;;;;;9.72;56.85;95009.44;4934874;28;20049;-71
2021/11/13 15:41:32;;;;;;;11.70;9.40;;;;;;;9.58;59.53;95010.88;4946596;28;20492;-74
2021/11/13 15:43:59;;;;;;;11.00;9.68;;;;;;;9.33;61.92;95009.28;4948454;28;20063;-74
2021/11/13 15:46:25;;;;;;;16.05;11.82;;;;;;;9.34;62.31;95008.34;4931547;29;20035;-74
2021/11/13 15:48:54;;;;;;;13.10;10.88;;;;;;;9.34;62.49;95022.03;4940333;29;20034;-74
2021/11/13 15:51:21;;;;;;;17.17;11.18;;;;;;;9.28;62.74;95027.84;4942084;29;20066;-74
2021/11/13 15:53:51;;;;;;;15.88;12.35;;;;;;;9.33;62.60;95032.53;4962837;28;20101;-74
2021/11/13 15:56:18;;;;;;;;;;;;;;;9.32;62.13;95036.09;4947593;28;20496;-74
2021/11/13 15:58:48;;;;;;;21.10;12.55;;;;;;;9.36;61.66;95034.81;4945650;28;19922;-74
2021/11/13 16:01:13;;;;;;;;;;;;;;;9.31;61.36;95044.84;4959181;28;20055;-73
2021/11/13 16:03:39;;;;;;;12.90;10.55;;;;;;;9.39;60.63;95048.22;4944878;28;19950;-74
2021/11/13 16:06:04;;;;;;;13.55;11.07;;;;;;;9.26;61.20;95055.63;4947725;29;20058;-75
2021/11/13 16:08:33;;;;;;;14.52;12.35;;;;;;;9.16;62.98;95054.16;4938910;29;20425;-75
2021/11/13 16:10:59;;;;;;;13.07;11.32;;;;;;;9.06;62.28;95056.06;4942828;29;20032;-74
2021/11/13 16:13:25;;;;;;;12.32;10.32;;;;;;;9.04;62.05;95058.84;4940173;29;20404;-74
2021/11/13 16:15:51;;;;;;;15.48;10.18;;;;;;;9.04;61.80;95058.03;4938024;29;20472;-74
2021/11/13 16:18:16;;;;;;;11.27;9.68;;;;;;;8.97;60.43;95053.50;4941870;29;20055;-74
2021/11/13 16:20:42;;;;;;;12.80;9.43;;;;;;;8.93;60.52;95067.69;4937783;29;20138;-74
2021/11/13 16:23:07;;;;;;;11.80;9.20;;;;;;;8.93;60.09;95067.69;4942593;29;20043;-74
2021/11/13 16:25:33;;;;;;;9.43;8.48;;;;;;;8.97;58.58;95068.19;4942163;28;20408;-74
2021/11/13 16:28:01;;;;;;;14.13;8.52;;;;;;;8.77;59.43;95072.00;4942682;28;20505;-73
2021/11/13 16:30:27;;;;;;;10.52;9.20;;;;;;;8.90;58.97;95072.34;4942496;28;20055;-75
2021/11/13 16:32:52;;;;;;;10.18;9.00;;;;;;;8.86;58.77;95068.50;4959080;28;20156;-74
2021/11/13 16:35:18;;;;;;;13.48;10.68;;;;;;;8.54;60.30;95043.34;4948628;29;20027;-74
2021/11/13 16:38:15;;;;;;;10.93;9.70;;;;;;;8.69;60.57;95074.56;4943933;29;20118;-73